createdAt,value
2018-04-17T00:00:32.487Z,21.75
2018-04-17T00:03:00.071Z,21.98
2018-04-17T00:05:27.679Z,22.27
2018-04-17T00:07:55.259Z,21.27
2018-04-17T00:10:22.855Z,21.60
2018-04-17T00:12:50.439Z,19.85
2018-04-17T00:15:18.015Z,20.88
2018-04-17T00:17:45.606Z,20.98
2018-04-17T00:20:13.964Z,21.20
2018-04-17T00:22:41.589Z,20.10
2018-04-17T00:25:09.172Z,20.33
2018-04-17T00:27:36.763Z,19.48
2018-04-17T00:30:05.103Z,19.30
2018-04-17T00:32:33.452Z,19.58
2018-04-17T00:35:01.024Z,20.12
2018-04-17T00:37:29.375Z,19.10
2018-04-17T00:39:57.035Z,18.77
2018-04-17T00:42:24.616Z,18.83
2018-04-17T00:44:52.196Z,17.73
2018-04-17T00:47:19.780Z,17.60
2018-04-17T00:49:48.128Z,17.98
2018-04-17T00:52:15.705Z,17.42
2018-04-17T00:54:44.091Z,17.83
2018-04-17T00:57:12.440Z,17.50
2018-04-17T00:59:40.018Z,17.40
2018-04-17T01:02:08.372Z,17.33
2018-04-17T01:04:35.947Z,16.85
2018-04-17T01:07:03.531Z,16.02
2018-04-17T01:09:31.121Z,17.12
2018-04-17T01:11:58.704Z,16.45
2018-04-17T01:14:26.285Z,15.95
2018-04-17T01:16:53.902Z,17.05
2018-04-17T01:19:21.482Z,16.52
2018-04-17T01:21:49.073Z,15.60
2018-04-17T01:24:17.416Z,16.08
2018-04-17T01:26:44.995Z,15.25
2018-04-17T01:29:13.347Z,15.70
2018-04-17T01:31:40.931Z,14.68
2018-04-17T01:34:09.280Z,15.50
2018-04-17T01:36:36.863Z,15.20
2018-04-17T01:39:05.279Z,14.43
2018-04-17T01:41:32.860Z,14.82
2018-04-17T01:44:01.259Z,14.35
2018-04-17T01:46:28.838Z,14.18
2018-04-17T01:48:57.187Z,14.48
2018-04-17T01:51:24.767Z,13.40
2018-04-17T01:53:53.125Z,14.43
2018-04-17T01:56:20.720Z,14.13
2018-04-17T01:58:48.312Z,12.93
2018-04-17T02:01:15.892Z,13.82
2018-04-17T02:03:43.467Z,14.07
2018-04-17T02:06:11.087Z,12.80
2018-04-17T02:08:38.671Z,13.10
2018-04-17T02:11:06.259Z,13.20
2018-04-17T02:13:34.608Z,13.02
2018-04-17T02:16:02.185Z,12.68
2018-04-17T02:18:30.547Z,12.73
2018-04-17T02:20:58.157Z,12.20
2018-04-17T02:23:25.729Z,11.90
2018-04-17T02:25:53.314Z,11.98
2018-04-17T02:28:20.936Z,11.50
2018-04-17T02:30:48.540Z,12.02
2018-04-17T02:33:16.130Z,12.98
2018-04-17T02:35:43.713Z,12.05
2018-04-17T02:38:11.295Z,11.75
2018-04-17T02:40:38.876Z,11.63
2018-04-17T02:43:06.459Z,11.10
2018-04-17T02:45:34.804Z,11.15
2018-04-17T02:48:02.388Z,11.10
2018-04-17T02:50:30.779Z,11.70
2018-04-17T02:52:58.375Z,10.43
2018-04-17T02:55:26.946Z,10.88
2018-04-17T02:57:54.520Z,11.65
2018-04-17T03:00:22.115Z,11.60
2018-04-17T03:02:50.693Z,9.93
2018-04-17T03:05:19.039Z,10.75
2018-04-17T03:07:46.623Z,10.98
2018-04-17T03:10:14.196Z,9.68
2018-04-17T03:12:42.543Z,10.68
2018-04-17T03:15:10.165Z,10.32
2018-04-17T03:17:37.753Z,10.25
2018-04-17T03:20:05.341Z,9.70
2018-04-17T03:22:33.687Z,9.98
2018-04-17T03:25:01.267Z,10.05
2018-04-17T03:27:29.615Z,9.82
2018-04-17T03:29:57.200Z,9.98
2018-04-17T03:32:25.548Z,9.93
2018-04-17T03:34:53.123Z,9.30
2018-04-17T03:37:20.708Z,9.07
2018-04-17T03:39:49.057Z,9.15
2018-04-17T03:42:16.668Z,9.57
2018-04-17T03:44:44.256Z,9.57
2018-04-17T03:47:11.828Z,8.98
2018-04-17T03:49:39.410Z,8.95
2018-04-17T03:52:07.757Z,9.38
2018-04-17T03:54:35.336Z,9.07
2018-04-17T03:57:03.684Z,8.55
2018-04-17T03:59:31.255Z,8.13
2018-04-17T04:01:58.862Z,8.27
2018-04-17T04:04:26.444Z,8.43
2018-04-17T04:06:54.028Z,8.35
2018-04-17T04:09:21.662Z,8.02
2018-04-17T04:11:49.354Z,8.15
2018-04-17T04:14:17.795Z,8.23
2018-04-17T04:16:57.216Z,7.47
2018-04-17T04:19:36.439Z,7.65
2018-04-17T04:22:15.871Z,7.97
2018-04-17T04:25:00.055Z,7.20
2018-04-17T04:27:27.688Z,7.28
2018-04-17T04:29:56.005Z,7.82
2018-04-17T04:32:23.583Z,7.28
2018-04-17T04:34:52.014Z,7.00
2018-04-17T04:37:19.560Z,7.37
2018-04-17T04:39:47.140Z,7.18
2018-04-17T04:42:15.484Z,7.28
2018-04-17T04:44:43.061Z,7.45
2018-04-17T04:47:10.631Z,8.65
2018-04-17T04:49:38.216Z,8.75
2018-04-17T04:52:05.847Z,9.02
2018-04-17T04:54:33.395Z,9.32
2018-04-17T04:57:00.977Z,9.75
2018-04-17T04:59:28.558Z,12.25
2018-04-17T05:01:56.916Z,13.55
2018-04-17T05:04:24.503Z,14.25
2018-04-17T05:06:52.847Z,16.60
2018-04-17T05:09:20.436Z,17.70
2018-04-17T05:11:48.787Z,17.50
2018-04-17T05:14:16.409Z,17.02
2018-04-17T05:16:43.988Z,18.55
2018-04-17T05:19:11.581Z,19.02
2018-04-17T05:21:39.931Z,20.00
2018-04-17T05:24:07.552Z,24.67
2018-04-17T05:26:35.404Z,27.08
2018-04-17T05:29:03.024Z,28.90
2018-04-17T05:31:30.610Z,28.48
2018-04-17T05:33:58.961Z,27.73
2018-04-17T05:36:26.540Z,28.90
2018-04-17T05:38:54.886Z,30.50
2018-04-17T05:41:22.472Z,32.28
2018-04-17T05:43:50.820Z,32.95
2018-04-17T05:46:18.402Z,34.08
2018-04-17T05:48:46.019Z,34.35
2018-04-17T05:51:13.624Z,35.65
2018-04-17T05:53:41.985Z,35.33
2018-04-17T05:56:09.572Z,35.20
2018-04-17T05:58:37.179Z,39.63
2018-04-17T06:01:05.575Z,42.38
2018-04-17T06:03:33.168Z,47.08
2018-04-17T06:06:00.797Z,47.20
2018-04-17T06:08:28.425Z,48.80
2018-04-17T06:10:56.016Z,55.60
2018-04-17T06:13:23.599Z,56.42
2018-04-17T06:15:51.222Z,57.10
2018-04-17T06:18:18.813Z,55.83
2018-04-17T06:20:47.209Z,55.20
2018-04-17T06:23:14.825Z,56.13
2018-04-17T06:25:42.412Z,55.40
2018-04-17T06:28:10.001Z,56.30
2018-04-17T06:30:37.583Z,54.80
2018-04-17T06:33:05.209Z,55.55
2018-04-17T06:35:32.791Z,55.47
2018-04-17T06:38:00.381Z,55.50
2018-04-17T06:40:28.747Z,54.80
2018-04-17T06:42:56.335Z,56.05
2018-04-17T06:45:24.681Z,55.05
2018-04-17T06:47:52.278Z,55.78
2018-04-17T06:50:19.864Z,55.25
2018-04-17T06:52:47.501Z,53.65
2018-04-17T06:55:15.823Z,54.65
2018-04-17T06:57:43.412Z,54.67
2018-04-17T07:00:11.755Z,55.92
2018-04-17T07:02:39.341Z,54.60
2018-04-17T07:05:07.733Z,53.67
2018-04-17T07:07:36.081Z,53.53
2018-04-17T07:10:03.704Z,53.55
2018-04-17T07:12:31.288Z,52.92
2018-04-17T07:14:58.943Z,53.65
2018-04-17T07:17:26.535Z,52.85
2018-04-17T07:19:54.888Z,52.65
2018-04-17T07:22:22.472Z,51.80
2018-04-17T07:24:50.856Z,52.30
2018-04-17T07:27:19.199Z,50.47
2018-04-17T07:29:46.791Z,52.88
2018-04-17T07:32:15.151Z,49.45
2018-04-17T07:34:43.522Z,50.47
2018-04-17T07:37:11.883Z,49.28
2018-04-17T07:39:39.464Z,47.92
2018-04-17T07:42:07.813Z,48.60
2018-04-17T07:44:35.403Z,47.97
2018-04-17T07:47:26.578Z,48.45
2018-04-17T07:49:54.197Z,47.92
2018-04-17T07:52:21.775Z,47.45
2018-04-17T07:54:49.359Z,47.60
2018-04-17T07:57:16.949Z,47.38
2018-04-17T07:59:45.304Z,46.05
2018-04-17T08:02:12.891Z,45.30
2018-04-17T08:04:40.487Z,46.55
2018-04-17T08:07:08.073Z,45.00
2018-04-17T08:09:35.661Z,44.85
2018-04-17T08:12:04.006Z,44.35
2018-04-17T08:14:31.591Z,41.75
2018-04-17T08:16:59.940Z,43.63
2018-04-17T08:19:27.523Z,42.55
2018-04-17T08:21:55.872Z,41.53
2018-04-17T08:24:23.472Z,43.55
2018-04-17T08:26:51.052Z,44.00
2018-04-17T08:29:18.651Z,40.78
2018-04-17T08:31:46.277Z,42.28
2018-04-17T08:34:13.863Z,40.80
2018-04-17T08:36:41.451Z,40.70
2018-04-17T08:39:09.799Z,39.47
2018-04-17T08:41:37.385Z,39.92
2018-04-17T08:44:05.771Z,38.05
2018-04-17T08:46:33.367Z,36.28
2018-04-17T08:49:00.950Z,36.45
2018-04-17T08:51:28.581Z,35.60
2018-04-17T08:53:56.159Z,36.03
2018-04-17T08:56:24.660Z,35.70
2018-04-17T08:58:52.249Z,34.28
2018-04-17T09:01:19.837Z,34.95
2018-04-17T09:03:47.419Z,33.88
2018-04-17T09:06:15.003Z,33.47
2018-04-17T09:08:43.355Z,33.90
2018-04-17T09:11:10.940Z,31.55
2018-04-17T09:13:39.292Z,33.58
2018-04-17T09:16:06.877Z,31.87
2018-04-17T09:18:35.269Z,30.10
2018-04-17T09:21:02.854Z,33.10
2018-04-17T09:23:30.472Z,31.77
2018-04-17T09:25:58.820Z,32.53
2018-04-17T09:28:26.400Z,30.83
2018-04-17T09:30:54.751Z,29.58
2018-04-17T09:33:22.338Z,28.27
2018-04-17T09:35:50.692Z,26.80
2018-04-17T09:38:18.280Z,25.95
2018-04-17T09:40:46.676Z,24.85
2018-04-17T09:43:14.261Z,23.62
2018-04-17T09:45:41.844Z,22.65
2018-04-17T09:48:09.437Z,20.27
2018-04-17T09:50:37.040Z,21.23
2018-04-17T09:53:05.399Z,18.83
2018-04-17T09:55:33.017Z,18.25
2018-04-17T09:58:01.375Z,15.15
2018-04-17T10:00:29.012Z,15.00
2018-04-17T10:02:57.369Z,14.38
2018-04-17T10:05:24.956Z,12.90
2018-04-17T10:07:52.543Z,13.25
2018-04-17T10:10:20.929Z,11.77
2018-04-17T10:12:49.279Z,10.32
2018-04-17T10:15:16.863Z,11.07
2018-04-17T10:17:44.451Z,10.43
2018-04-17T10:20:12.032Z,9.63
2018-04-17T10:22:39.617Z,9.68
2018-04-17T10:25:07.202Z,9.23
2018-04-17T10:27:34.788Z,9.73
2018-04-17T10:30:02.383Z,9.60
2018-04-17T10:32:29.979Z,9.60
2018-04-17T10:34:57.564Z,9.43
2018-04-17T10:37:25.153Z,8.82
2018-04-17T10:39:52.732Z,8.35
2018-04-17T10:42:21.081Z,8.35
2018-04-17T10:44:48.661Z,8.00
2018-04-17T10:47:17.040Z,7.85
2018-04-17T10:49:45.391Z,7.75
2018-04-17T10:52:12.964Z,7.40
2018-04-17T10:54:40.550Z,6.78
2018-04-17T10:57:08.128Z,6.47
2018-04-17T10:59:35.707Z,6.05
2018-04-17T11:02:03.280Z,6.30
2018-04-17T11:04:31.663Z,5.75
2018-04-17T11:06:59.240Z,6.15
2018-04-17T11:09:27.656Z,5.72
2018-04-17T11:11:55.233Z,5.37
2018-04-17T11:14:22.828Z,5.20
2018-04-17T11:16:50.413Z,5.10
2018-04-17T11:19:17.997Z,4.75
2018-04-17T11:21:45.568Z,4.37
2018-04-17T11:24:13.157Z,4.25
2018-04-17T11:26:40.737Z,4.75
2018-04-17T11:29:09.114Z,4.32
2018-04-17T11:31:43.111Z,3.90
2018-04-17T11:34:11.539Z,3.80
2018-04-17T11:36:39.116Z,3.80
2018-04-17T11:39:10.439Z,3.67
2018-04-17T11:41:38.025Z,3.62
2018-04-17T11:44:05.614Z,3.22
2018-04-17T11:46:34.036Z,3.22
2018-04-17T11:49:01.613Z,3.10
2018-04-17T11:51:29.215Z,2.95
2018-04-17T11:53:57.565Z,2.97
2018-04-17T11:56:25.139Z,3.00
2018-04-17T11:58:53.495Z,3.05
2018-04-17T12:01:21.152Z,3.08
2018-04-17T12:03:48.728Z,2.67
2018-04-17T12:06:17.112Z,2.85
2018-04-17T12:08:45.453Z,2.67
2018-04-17T12:11:13.831Z,2.60
2018-04-17T12:13:41.448Z,2.75
2018-04-17T12:16:09.063Z,2.50
2018-04-17T12:18:36.664Z,2.58
2018-04-17T12:21:04.243Z,3.00
2018-04-17T12:23:31.829Z,2.97
2018-04-17T12:25:59.455Z,3.10
2018-04-17T12:28:27.121Z,3.03
2018-04-17T12:30:54.704Z,2.75
2018-04-17T12:33:22.290Z,2.65
2018-04-17T12:35:50.636Z,3.10
2018-04-17T12:38:18.267Z,2.97
2018-04-17T12:40:45.846Z,2.80
2018-04-17T12:43:13.423Z,2.90
2018-04-17T12:45:41.021Z,2.72
2018-04-17T12:48:08.631Z,2.70
2018-04-17T12:50:36.208Z,2.62
2018-04-17T12:53:04.556Z,2.40
2018-04-17T12:55:32.137Z,2.92
2018-04-17T12:57:59.715Z,2.85
2018-04-17T13:00:28.112Z,2.70
2018-04-17T13:03:01.483Z,3.33
2018-04-17T13:05:29.870Z,3.45
2018-04-17T13:07:57.516Z,3.37
2018-04-17T13:10:25.865Z,3.33
2018-04-17T13:12:53.443Z,4.00
2018-04-17T13:15:21.140Z,3.45
2018-04-17T13:17:48.722Z,3.30
2018-04-17T13:20:17.108Z,3.47
2018-04-17T13:22:44.730Z,3.20
2018-04-17T13:25:12.310Z,3.22
2018-04-17T13:27:39.920Z,3.55
2018-04-17T13:30:08.265Z,3.72
2018-04-17T13:32:35.855Z,3.40
2018-04-17T13:35:04.201Z,3.05
2018-04-17T13:37:31.825Z,3.15
2018-04-17T13:39:59.511Z,3.30
2018-04-17T13:42:27.263Z,4.20
2018-04-17T13:44:54.881Z,4.62
2018-04-17T13:47:23.225Z,5.20
2018-04-17T13:49:50.827Z,5.78
2018-04-17T13:52:18.413Z,5.40
2018-04-17T13:54:45.996Z,5.07
2018-04-17T13:57:13.640Z,5.18
2018-04-17T13:59:41.253Z,5.10
2018-04-17T14:02:08.941Z,5.47
2018-04-17T14:04:36.520Z,4.65
2018-04-17T14:07:04.129Z,4.70
2018-04-17T14:09:32.537Z,4.60
2018-04-17T14:12:00.148Z,4.37
2018-04-17T14:14:27.753Z,4.45
2018-04-17T14:16:55.356Z,4.37
2018-04-17T14:19:22.947Z,4.20
2018-04-17T14:21:50.525Z,4.12
2018-04-17T14:24:18.118Z,3.78
2018-04-17T14:26:45.703Z,3.80
2018-04-17T14:29:14.056Z,3.50
2018-04-17T14:31:41.640Z,3.33
2018-04-17T14:34:09.995Z,4.05
2018-04-17T14:36:37.574Z,3.53
2018-04-17T14:39:05.991Z,3.50
2018-04-17T14:41:33.568Z,3.65
2018-04-17T14:44:01.151Z,3.85
2018-04-17T14:46:28.735Z,3.40
2018-04-17T14:48:57.075Z,3.90
2018-04-17T14:51:24.727Z,3.53
2018-04-17T14:53:52.308Z,3.40
2018-04-17T14:56:19.908Z,3.47
2018-04-17T14:58:47.480Z,3.62
2018-04-17T15:01:15.060Z,3.97
2018-04-17T15:03:42.638Z,3.80
2018-04-17T15:06:10.219Z,3.50
2018-04-17T15:08:37.824Z,3.70
2018-04-17T15:11:05.444Z,3.45
2018-04-17T15:13:33.016Z,3.25
2018-04-17T15:16:00.597Z,3.17
2018-04-17T15:18:28.220Z,3.20
2018-04-17T15:20:55.796Z,3.03
2018-04-17T15:23:23.376Z,3.10
2018-04-17T15:25:51.721Z,3.00
2018-04-17T15:28:19.298Z,3.15
2018-04-17T15:30:46.876Z,2.92
2018-04-17T15:33:14.452Z,2.45
2018-04-17T15:35:42.036Z,3.33
2018-04-17T15:38:10.383Z,3.00
2018-04-17T15:40:37.972Z,2.95
2018-04-17T15:43:06.320Z,3.30
2018-04-17T15:45:33.942Z,3.78
2018-04-17T15:48:01.526Z,4.57
2018-04-17T15:50:29.146Z,6.55
2018-04-17T15:52:56.716Z,7.72
2018-04-17T15:55:24.292Z,8.02
2018-04-17T15:57:52.633Z,9.43
2018-04-17T16:00:20.222Z,10.98
2018-04-17T16:02:47.804Z,11.55
2018-04-17T16:05:15.411Z,14.15
2018-04-17T16:07:43.188Z,15.38
2018-04-17T16:10:10.795Z,16.45
2018-04-17T16:12:39.256Z,16.60
2018-04-17T16:15:06.883Z,17.35
2018-04-17T16:17:34.531Z,18.15
2018-04-17T16:20:02.194Z,19.23
2018-04-17T16:22:29.957Z,19.77
2018-04-17T16:24:57.747Z,19.27
2018-04-17T16:27:25.341Z,20.23
2018-04-17T16:29:53.722Z,20.50
2018-04-17T16:32:22.168Z,21.45
2018-04-17T16:34:49.842Z,21.87
2018-04-17T16:37:17.512Z,21.52
2018-04-17T16:39:45.868Z,21.85
2018-04-17T16:42:13.468Z,21.85
2018-04-17T16:44:41.235Z,22.37
2018-04-17T16:47:08.842Z,22.83
2018-04-17T16:49:36.436Z,23.65
2018-04-17T16:52:04.796Z,22.87
2018-04-17T16:54:33.157Z,23.05
2018-04-17T16:57:00.748Z,21.83
2018-04-17T16:59:28.346Z,22.10
2018-04-17T17:01:56.111Z,21.80
2018-04-17T17:04:24.007Z,23.08
2018-04-17T17:06:52.467Z,22.62
2018-04-17T17:09:20.059Z,22.73
2018-04-17T17:11:48.420Z,24.48
2018-04-17T17:14:16.033Z,23.67
2018-04-17T17:16:43.907Z,23.83
2018-04-17T17:19:11.512Z,23.25
2018-04-17T17:21:39.108Z,23.60
2018-04-17T17:24:06.700Z,23.50
2018-04-17T17:26:34.292Z,24.85
2018-04-17T17:29:02.747Z,23.87
2018-04-17T17:31:30.796Z,26.98
2018-04-17T17:33:58.463Z,28.08
2018-04-17T17:36:26.108Z,29.87
2018-04-17T17:38:53.807Z,29.12
2018-04-17T17:41:21.431Z,31.40
2018-04-17T17:43:49.165Z,33.40
2018-04-17T17:46:16.889Z,34.17
2018-04-17T17:48:44.548Z,33.88
2018-04-17T17:51:12.197Z,32.13
2018-04-17T17:53:40.015Z,34.17
2018-04-17T17:56:07.697Z,34.97
2018-04-17T17:58:35.308Z,33.38
2018-04-17T18:01:03.705Z,34.33
2018-04-17T18:03:31.502Z,32.95
2018-04-17T18:05:59.897Z,32.35
2018-04-17T18:08:27.665Z,31.48
2018-04-17T18:10:55.339Z,33.72
2018-04-17T18:13:22.980Z,32.88
2018-04-17T18:15:50.627Z,32.35
2018-04-17T18:18:18.387Z,32.45
2018-04-17T18:20:46.042Z,32.55
2018-04-17T18:23:13.624Z,31.45
2018-04-17T18:25:41.213Z,31.08
2018-04-17T18:28:09.614Z,32.25
2018-04-17T18:30:37.383Z,29.85
2018-04-17T18:33:05.113Z,30.27
2018-04-17T18:35:32.748Z,29.92
2018-04-17T18:38:00.439Z,29.37
2018-04-17T18:40:28.080Z,30.23
2018-04-17T18:42:56.591Z,29.40
2018-04-17T18:45:24.279Z,30.20
2018-04-17T18:47:51.869Z,27.98
2018-04-17T18:50:19.469Z,29.95
2018-04-17T18:52:47.221Z,31.77
2018-04-17T18:55:14.838Z,31.12
2018-04-17T18:57:43.220Z,30.88
2018-04-17T19:00:11.643Z,30.95
2018-04-17T19:02:39.245Z,32.15
2018-04-17T19:05:06.897Z,31.50
2018-04-17T19:07:34.499Z,30.77
2018-04-17T19:10:02.143Z,34.15
2018-04-17T19:12:30.624Z,31.62
2018-04-17T19:14:58.995Z,32.65
2018-04-17T19:17:26.600Z,31.50
2018-04-17T19:19:54.340Z,30.98
2018-04-17T19:22:22.091Z,31.02
2018-04-17T19:24:50.568Z,32.42
2018-04-17T19:27:18.188Z,31.23
2018-04-17T19:29:45.793Z,33.63
2018-04-17T19:32:14.158Z,31.10
2018-04-17T19:34:42.524Z,32.90
2018-04-17T19:37:10.113Z,33.17
2018-04-17T19:39:37.846Z,34.67
2018-04-17T19:42:06.261Z,35.63
2018-04-17T19:44:33.846Z,36.38
2018-04-17T19:47:01.440Z,36.17
2018-04-17T19:49:29.057Z,39.22
2018-04-17T19:51:56.725Z,37.88
2018-04-17T19:54:24.396Z,38.33
2018-04-17T19:56:52.725Z,38.65
2018-04-17T19:59:20.443Z,38.65
2018-04-17T20:01:48.117Z,38.63
2018-04-17T20:04:15.743Z,37.08
2018-04-17T20:06:43.328Z,37.60
2018-04-17T20:09:11.040Z,37.67
2018-04-17T20:11:38.705Z,36.70
2018-04-17T20:14:06.304Z,36.83
2018-04-17T20:16:33.902Z,35.60
2018-04-17T20:19:01.637Z,37.92
2018-04-17T20:21:30.093Z,36.35
2018-04-17T20:23:57.686Z,36.17
2018-04-17T20:26:25.311Z,34.83
2018-04-17T20:28:52.912Z,35.30
2018-04-17T20:31:20.535Z,35.60
2018-04-17T20:33:48.678Z,35.45
2018-04-17T20:36:16.263Z,34.67
2018-04-17T20:38:43.889Z,35.17
2018-04-17T20:41:11.536Z,34.53
2018-04-17T20:43:39.221Z,35.55
2018-04-17T20:46:06.843Z,34.97
2018-04-17T20:48:34.616Z,34.15
2018-04-17T20:51:02.240Z,35.17
2018-04-17T20:53:30.628Z,33.17
2018-04-17T20:55:58.998Z,32.70
2018-04-17T20:58:27.427Z,33.80
2018-04-17T21:00:55.143Z,33.33
2018-04-17T21:03:23.669Z,33.15
2018-04-17T21:05:51.303Z,32.92
2018-04-17T21:08:18.924Z,31.90
2018-04-17T21:10:46.756Z,31.98
2018-04-17T21:13:14.472Z,32.15
2018-04-17T21:15:42.871Z,33.38
2018-04-17T21:18:10.502Z,33.25
2018-04-17T21:20:38.859Z,32.35
2018-04-17T21:23:06.543Z,32.28
2018-04-17T21:25:34.981Z,31.08
2018-04-17T21:28:03.629Z,31.80
2018-04-17T21:30:31.273Z,31.92
2018-04-17T21:32:58.887Z,31.95
2018-04-17T21:35:26.492Z,32.25
2018-04-17T21:37:54.117Z,30.20
2018-04-17T21:40:21.775Z,32.35
2018-04-17T21:42:49.505Z,31.77
2018-04-17T21:45:17.184Z,31.65
2018-04-17T21:47:44.772Z,30.62
2018-04-17T21:50:13.121Z,30.45
2018-04-17T21:52:40.727Z,29.95
2018-04-17T21:55:08.408Z,30.15
2018-04-17T21:57:36.013Z,29.60
2018-04-17T22:00:03.856Z,29.48
2018-04-17T22:02:31.449Z,28.58
2018-04-17T22:04:59.876Z,30.70
2018-04-17T22:07:28.559Z,29.25
2018-04-17T22:09:57.053Z,29.67
2018-04-17T22:12:24.693Z,29.02
2018-04-17T22:14:52.280Z,29.35
2018-04-17T22:17:19.868Z,29.35
2018-04-17T22:19:48.289Z,30.23
2018-04-17T22:22:15.923Z,28.85
2018-04-17T22:24:43.614Z,29.48
2018-04-17T22:27:11.227Z,30.10
2018-04-17T22:29:39.613Z,28.42
2018-04-17T22:32:07.202Z,27.55
2018-04-17T22:34:35.099Z,28.27
2018-04-17T22:37:02.744Z,27.52
2018-04-17T22:39:30.434Z,27.75
2018-04-17T22:41:58.823Z,27.90
2018-04-17T22:44:27.202Z,27.20
2018-04-17T22:46:55.652Z,28.48
2018-04-17T22:49:23.354Z,27.37
2018-04-17T22:51:50.993Z,28.15
2018-04-17T22:54:19.371Z,26.42
2018-04-17T22:56:47.760Z,28.15
2018-04-17T22:59:15.381Z,27.02
2018-04-17T23:01:42.965Z,27.15
2018-04-17T23:04:11.321Z,27.90
2018-04-17T23:06:38.908Z,26.95
2018-04-17T23:09:06.492Z,25.90
2018-04-17T23:11:34.080Z,27.23
2018-04-17T23:14:01.663Z,27.45
2018-04-17T23:16:30.064Z,26.15
2018-04-17T23:18:57.638Z,25.90
2018-04-17T23:21:25.232Z,26.73
2018-04-17T23:23:52.842Z,24.83
2018-04-17T23:26:20.459Z,24.05
2018-04-17T23:28:48.040Z,24.65
2018-04-17T23:31:16.391Z,25.42
2018-04-17T23:33:43.981Z,24.27
2018-04-17T23:36:12.328Z,26.27
2018-04-17T23:38:39.919Z,24.55
2018-04-17T23:41:08.268Z,25.35
2018-04-17T23:43:35.884Z,25.17
2018-04-17T23:46:03.470Z,24.92
2018-04-17T23:48:31.068Z,22.77
2018-04-17T23:50:59.419Z,24.37
2018-04-17T23:53:27.025Z,23.98
2018-04-17T23:55:54.619Z,22.90
2018-04-17T23:58:23.016Z,23.65
